sensor_id;sensor_type;location;lat;lon;timestamp;pressure;altitude;pressure_sealevel;temperature;humidity
54870;BME280;40756;-37.950;145.008;2023-04-03T00:01:48;101773.36;;;16.91;46.29
54870;BME280;40756;-37.950;145.008;2023-04-03T00:04:18;101767.58;;;17.12;46.28
54870;BME280;40756;-37.950;145.008;2023-04-03T00:06:48;101767.99;;;16.24;48.19
54870;BME280;40756;-37.950;145.008;2023-04-03T00:09:17;101764.92;;;16.11;47.91
54870;BME280;40756;-37.950;145.008;2023-04-03T00:11:47;101758.18;;;17.08;46.36
54870;BME280;40756;-37.950;145.008;2023-04-03T00:14:17;101757.25;;;16.96;46.43
54870;BME280;40756;-37.950;145.008;2023-04-03T00:16:46;101749.51;;;17.49;46.00
54870;BME280;40756;-37.950;145.008;2023-04-03T00:19:16;101752.65;;;15.79;49.46
54870;BME280;40756;-37.950;145.008;2023-04-03T00:21:45;101749.36;;;16.44;48.18
54870;BME280;40756;-37.950;145.008;2023-04-03T00:24:15;101753.49;;;15.88;49.75
54870;BME280;40756;-37.950;145.008;2023-04-03T00:26:44;101744.34;;;17.00;48.62
54870;BME280;40756;-37.950;145.008;2023-04-03T00:29:14;101747.86;;;16.19;49.87
54870;BME280;40756;-37.950;145.008;2023-04-03T00:31:43;101744.95;;;16.09;49.22
54870;BME280;40756;-37.950;145.008;2023-04-03T00:34:13;101743.66;;;16.45;49.05
54870;BME280;40756;-37.950;145.008;2023-04-03T00:36:44;101741.53;;;16.41;48.71
54870;BME280;40756;-37.950;145.008;2023-04-03T00:39:13;101737.20;;;16.40;48.73
54870;BME280;40756;-37.950;145.008;2023-04-03T00:41:42;101734.37;;;16.30;48.99
54870;BME280;40756;-37.950;145.008;2023-04-03T00:44:22;101733.54;;;16.44;48.75
54870;BME280;40756;-37.950;145.008;2023-04-03T00:47:49;101724.71;;;16.96;48.33
54870;BME280;40756;-37.950;145.008;2023-04-03T00:50:19;101721.16;;;17.41;48.07
54870;BME280;40756;-37.950;145.008;2023-04-03T00:52:48;101720.54;;;16.59;48.81
54870;BME280;40756;-37.950;145.008;2023-04-03T00:55:18;101714.32;;;17.61;47.57
54870;BME280;40756;-37.950;145.008;2023-04-03T00:57:49;101710.94;;;16.85;48.32
54870;BME280;40756;-37.950;145.008;2023-04-03T01:00:21;101710.11;;;17.49;47.48
54870;BME280;40756;-37.950;145.008;2023-04-03T01:02:53;101705.36;;;18.00;46.27
54870;BME280;40756;-37.950;145.008;2023-04-03T01:05:23;101702.10;;;17.15;47.37
54870;BME280;40756;-37.950;145.008;2023-04-03T01:07:53;101699.58;;;17.56;47.65
54870;BME280;40756;-37.950;145.008;2023-04-03T01:10:23;101702.31;;;16.81;48.23
54870;BME280;40756;-37.950;145.008;2023-04-03T01:12:52;101700.13;;;16.81;48.79
54870;BME280;40756;-37.950;145.008;2023-04-03T01:15:24;101699.41;;;17.71;47.23
54870;BME280;40756;-37.950;145.008;2023-04-03T01:17:54;101701.72;;;17.34;48.19
54870;BME280;40756;-37.950;145.008;2023-04-03T01:21:36;101705.78;;;16.25;49.56
54870;BME280;40756;-37.950;145.008;2023-04-03T01:24:23;101697.69;;;16.94;48.47
54870;BME280;40756;-37.950;145.008;2023-04-03T01:26:56;101698.61;;;16.20;50.08
54870;BME280;40756;-37.950;145.008;2023-04-03T01:29:26;101690.64;;;16.92;48.84
54870;BME280;40756;-37.950;145.008;2023-04-03T01:31:58;101689.68;;;17.37;48.88
54870;BME280;40756;-37.950;145.008;2023-04-03T01:34:29;101683.62;;;18.63;46.26
54870;BME280;40756;-37.950;145.008;2023-04-03T01:36:59;101677.87;;;18.19;46.48
54870;BME280;40756;-37.950;145.008;2023-04-03T01:39:29;101675.46;;;18.96;46.04
54870;BME280;40756;-37.950;145.008;2023-04-03T01:41:58;101671.99;;;19.05;44.91
54870;BME280;40756;-37.950;145.008;2023-04-03T01:44:28;101671.17;;;18.67;44.89
54870;BME280;40756;-37.950;145.008;2023-04-03T01:46:58;101667.94;;;19.76;43.07
54870;BME280;40756;-37.950;145.008;2023-04-03T01:49:27;101668.52;;;18.70;44.39
54870;BME280;40756;-37.950;145.008;2023-04-03T01:51:57;101663.76;;;18.93;43.38
54870;BME280;40756;-37.950;145.008;2023-04-03T01:54:26;101663.23;;;19.43;43.97
54870;BME280;40756;-37.950;145.008;2023-04-03T01:56:56;101655.99;;;18.67;44.09
54870;BME280;40756;-37.950;145.008;2023-04-03T01:59:25;101651.97;;;19.58;42.91
54870;BME280;40756;-37.950;145.008;2023-04-03T02:01:55;101645.76;;;20.05;42.85
54870;BME280;40756;-37.950;145.008;2023-04-03T02:04:25;101640.44;;;20.35;41.58
54870;BME280;40756;-37.950;145.008;2023-04-03T02:06:54;101634.05;;;21.08;41.06
54870;BME280;40756;-37.950;145.008;2023-04-03T02:09:23;101633.99;;;20.43;42.18
54870;BME280;40756;-37.950;145.008;2023-04-03T02:11:53;101629.82;;;21.03;41.11
54870;BME280;40756;-37.950;145.008;2023-04-03T02:14:22;101628.47;;;20.52;40.81
54870;BME280;40756;-37.950;145.008;2023-04-03T02:16:52;101623.52;;;20.29;41.26
54870;BME280;40756;-37.950;145.008;2023-04-03T02:19:21;101621.91;;;19.62;42.54
54870;BME280;40756;-37.950;145.008;2023-04-03T02:21:51;101613.90;;;20.74;41.63
54870;BME280;40756;-37.950;145.008;2023-04-03T02:24:20;101606.87;;;21.11;40.53
54870;BME280;40756;-37.950;145.008;2023-04-03T02:26:50;101606.98;;;21.21;40.21
54870;BME280;40756;-37.950;145.008;2023-04-03T02:29:19;101606.82;;;19.37;43.42
54870;BME280;40756;-37.950;145.008;2023-04-03T02:31:49;101600.02;;;20.32;42.59
54870;BME280;40756;-37.950;145.008;2023-04-03T02:34:18;101594.52;;;20.30;41.75
54870;BME280;40756;-37.950;145.008;2023-04-03T02:36:48;101588.18;;;20.20;41.60
54870;BME280;40756;-37.950;145.008;2023-04-03T02:39:17;101584.22;;;20.53;40.77
54870;BME280;40756;-37.950;145.008;2023-04-03T02:41:46;101579.29;;;21.47;39.95
54870;BME280;40756;-37.950;145.008;2023-04-03T02:44:16;101571.97;;;20.88;40.14
54870;BME280;40756;-37.950;145.008;2023-04-03T02:46:46;101570.77;;;21.84;38.72
54870;BME280;40756;-37.950;145.008;2023-04-03T02:49:16;101564.76;;;22.34;38.17
54870;BME280;40756;-37.950;145.008;2023-04-03T02:51:45;101561.22;;;22.21;37.97
54870;BME280;40756;-37.950;145.008;2023-04-03T02:54:14;101559.01;;;22.18;37.32
54870;BME280;40756;-37.950;145.008;2023-04-03T02:56:44;101556.89;;;22.84;36.81
54870;BME280;40756;-37.950;145.008;2023-04-03T02:59:13;101551.94;;;22.33;37.06
54870;BME280;40756;-37.950;145.008;2023-04-03T03:01:42;101549.81;;;22.61;35.85
54870;BME280;40756;-37.950;145.008;2023-04-03T03:04:12;101544.73;;;22.94;35.36
54870;BME280;40756;-37.950;145.008;2023-04-03T03:06:41;101537.64;;;23.55;35.28
54870;BME280;40756;-37.950;145.008;2023-04-03T03:09:10;101536.23;;;22.83;36.36
54870;BME280;40756;-37.950;145.008;2023-04-03T03:11:40;101533.74;;;22.82;36.50
54870;BME280;40756;-37.950;145.008;2023-04-03T03:14:09;101527.12;;;23.13;35.91
54870;BME280;40756;-37.950;145.008;2023-04-03T03:16:39;101521.14;;;24.02;34.63
54870;BME280;40756;-37.950;145.008;2023-04-03T03:19:08;101518.81;;;23.22;35.36
54870;BME280;40756;-37.950;145.008;2023-04-03T03:21:37;101518.77;;;23.75;35.23
54870;BME280;40756;-37.950;145.008;2023-04-03T03:24:07;101519.64;;;23.23;35.18
54870;BME280;40756;-37.950;145.008;2023-04-03T03:26:38;101509.74;;;24.26;34.39
54870;BME280;40756;-37.950;145.008;2023-04-03T03:29:07;101504.96;;;23.11;36.00
54870;BME280;40756;-37.950;145.008;2023-04-03T03:31:37;101498.84;;;22.91;36.13
54870;BME280;40756;-37.950;145.008;2023-04-03T03:34:07;101495.98;;;22.66;36.02
54870;BME280;40756;-37.950;145.008;2023-04-03T03:36:36;101492.71;;;23.75;35.11
54870;BME280;40756;-37.950;145.008;2023-04-03T03:39:06;101482.96;;;24.19;34.67
54870;BME280;40756;-37.950;145.008;2023-04-03T03:41:35;101485.22;;;22.76;36.00
54870;BME280;40756;-37.950;145.008;2023-04-03T03:44:04;101478.73;;;23.57;35.08
54870;BME280;40756;-37.950;145.008;2023-04-03T03:46:34;101475.27;;;23.45;35.07
54870;BME280;40756;-37.950;145.008;2023-04-03T03:49:04;101469.17;;;23.03;35.73
54870;BME280;40756;-37.950;145.008;2023-04-03T03:51:33;101460.52;;;23.59;34.84
54870;BME280;40756;-37.950;145.008;2023-04-03T03:54:03;101454.76;;;24.16;34.64
54870;BME280;40756;-37.950;145.008;2023-04-03T03:56:33;101451.66;;;24.22;33.49
54870;BME280;40756;-37.950;145.008;2023-04-03T03:59:03;101447.61;;;24.29;33.31
54870;BME280;40756;-37.950;145.008;2023-04-03T04:01:32;101448.47;;;24.13;33.65
54870;BME280;40756;-37.950;145.008;2023-04-03T04:04:02;101447.05;;;24.37;33.98
54870;BME280;40756;-37.950;145.008;2023-04-03T04:06:31;101450.26;;;23.07;34.62
54870;BME280;40756;-37.950;145.008;2023-04-03T04:09:00;101445.61;;;24.15;33.54
54870;BME280;40756;-37.950;145.008;2023-04-03T04:11:30;101440.19;;;24.01;33.78
54870;BME280;40756;-37.950;145.008;2023-04-03T04:13:59;101436.67;;;23.53;35.23
54870;BME280;40756;-37.950;145.008;2023-04-03T04:16:28;101438.30;;;22.61;35.46
54870;BME280;40756;-37.950;145.008;2023-04-03T04:18:58;101433.12;;;22.83;35.94
54870;BME280;40756;-37.950;145.008;2023-04-03T04:21:28;101432.21;;;23.68;35.49
54870;BME280;40756;-37.950;145.008;2023-04-03T04:23:57;101433.31;;;23.13;35.82
54870;BME280;40756;-37.950;145.008;2023-04-03T04:26:27;101432.08;;;23.54;34.94
54870;BME280;40756;-37.950;145.008;2023-04-03T04:28:56;101438.91;;;22.57;35.84
54870;BME280;40756;-37.950;145.008;2023-04-03T04:31:26;101431.73;;;23.65;36.09
54870;BME280;40756;-37.950;145.008;2023-04-03T04:33:55;101432.89;;;24.22;35.83
54870;BME280;40756;-37.950;145.008;2023-04-03T04:36:25;101426.69;;;23.34;35.87
54870;BME280;40756;-37.950;145.008;2023-04-03T04:38:54;101425.21;;;25.19;34.49
54870;BME280;40756;-37.950;145.008;2023-04-03T04:41:24;101428.53;;;24.37;35.48
54870;BME280;40756;-37.950;145.008;2023-04-03T04:43:53;101426.11;;;25.08;34.29
54870;BME280;40756;-37.950;145.008;2023-04-03T04:46:23;101424.86;;;24.12;33.96
54870;BME280;40756;-37.950;145.008;2023-04-03T04:48:52;101420.07;;;25.04;33.71
54870;BME280;40756;-37.950;145.008;2023-04-03T04:51:22;101424.55;;;24.37;34.23
54870;BME280;40756;-37.950;145.008;2023-04-03T04:53:52;101423.39;;;24.89;33.83
54870;BME280;40756;-37.950;145.008;2023-04-03T04:56:21;101426.93;;;23.93;34.90
54870;BME280;40756;-37.950;145.008;2023-04-03T04:58:51;101424.48;;;23.51;35.90
54870;BME280;40756;-37.950;145.008;2023-04-03T05:01:20;101424.59;;;23.48;36.66
54870;BME280;40756;-37.950;145.008;2023-04-03T05:03:50;101424.14;;;23.60;36.26
54870;BME280;40756;-37.950;145.008;2023-04-03T05:06:19;101424.47;;;22.68;38.29
54870;BME280;40756;-37.950;145.008;2023-04-03T05:08:49;101421.88;;;21.70;39.81
54870;BME280;40756;-37.950;145.008;2023-04-03T05:11:18;101423.25;;;22.79;39.04
54870;BME280;40756;-37.950;145.008;2023-04-03T05:13:47;101420.46;;;21.87;40.34
54870;BME280;40756;-37.950;145.008;2023-04-03T05:16:17;101420.73;;;23.16;39.07
54870;BME280;40756;-37.950;145.008;2023-04-03T05:18:47;101416.29;;;22.53;39.39
54870;BME280;40756;-37.950;145.008;2023-04-03T05:21:16;101414.74;;;23.05;38.64
54870;BME280;40756;-37.950;145.008;2023-04-03T05:23:46;101410.69;;;23.50;37.96
54870;BME280;40756;-37.950;145.008;2023-04-03T05:26:15;101412.86;;;23.83;38.00
54870;BME280;40756;-37.950;145.008;2023-04-03T05:28:44;101414.31;;;23.76;37.80
54870;BME280;40756;-37.950;145.008;2023-04-03T05:31:14;101419.17;;;22.89;38.82
54870;BME280;40756;-37.950;145.008;2023-04-03T05:33:43;101421.46;;;22.43;39.94
54870;BME280;40756;-37.950;145.008;2023-04-03T05:36:13;101415.61;;;22.70;40.16
54870;BME280;40756;-37.950;145.008;2023-04-03T05:38:42;101412.66;;;23.56;39.69
54870;BME280;40756;-37.950;145.008;2023-04-03T05:41:11;101411.33;;;23.38;39.24
54870;BME280;40756;-37.950;145.008;2023-04-03T05:43:41;101417.02;;;22.83;39.85
54870;BME280;40756;-37.950;145.008;2023-04-03T05:46:13;101415.14;;;22.95;39.69
54870;BME280;40756;-37.950;145.008;2023-04-03T05:48:43;101417.19;;;22.85;39.84
54870;BME280;40756;-37.950;145.008;2023-04-03T05:51:16;101413.90;;;22.64;41.08
54870;BME280;40756;-37.950;145.008;2023-04-03T05:53:48;101407.58;;;22.17;41.33
54870;BME280;40756;-37.950;145.008;2023-04-03T05:56:18;101408.64;;;21.83;42.08
54870;BME280;40756;-37.950;145.008;2023-04-03T05:58:47;101401.48;;;22.27;40.68
54870;BME280;40756;-37.950;145.008;2023-04-03T06:01:17;101400.17;;;22.72;40.72
54870;BME280;40756;-37.950;145.008;2023-04-03T06:03:46;101401.74;;;23.54;40.13
54870;BME280;40756;-37.950;145.008;2023-04-03T06:06:16;101393.96;;;22.34;41.13
54870;BME280;40756;-37.950;145.008;2023-04-03T06:08:45;101395.73;;;21.96;41.43
54870;BME280;40756;-37.950;145.008;2023-04-03T06:11:14;101394.67;;;21.50;42.12
54870;BME280;40756;-37.950;145.008;2023-04-03T06:13:44;101390.94;;;22.17;41.28
54870;BME280;40756;-37.950;145.008;2023-04-03T06:16:14;101393.76;;;22.38;40.36
54870;BME280;40756;-37.950;145.008;2023-04-03T06:18:43;101393.48;;;22.46;40.85
54870;BME280;40756;-37.950;145.008;2023-04-03T06:21:13;101393.16;;;22.98;40.63
54870;BME280;40756;-37.950;145.008;2023-04-03T06:23:42;101390.47;;;21.83;41.46
54870;BME280;40756;-37.950;145.008;2023-04-03T06:26:12;101390.26;;;22.03;41.51
54870;BME280;40756;-37.950;145.008;2023-04-03T06:28:41;101385.21;;;22.17;41.58
54870;BME280;40756;-37.950;145.008;2023-04-03T06:31:11;101385.28;;;22.32;41.42
54870;BME280;40756;-37.950;145.008;2023-04-03T06:33:40;101380.67;;;22.33;41.17
54870;BME280;40756;-37.950;145.008;2023-04-03T06:36:12;101381.87;;;22.67;40.94
54870;BME280;40756;-37.950;145.008;2023-04-03T06:38:41;101377.93;;;23.45;39.72
54870;BME280;40756;-37.950;145.008;2023-04-03T06:41:11;101382.86;;;22.40;39.59
54870;BME280;40756;-37.950;145.008;2023-04-03T06:43:41;101381.51;;;22.39;39.94
54870;BME280;40756;-37.950;145.008;2023-04-03T06:46:15;101381.58;;;22.46;40.15
54870;BME280;40756;-37.950;145.008;2023-04-03T06:48:44;101381.77;;;22.54;40.85
54870;BME280;40756;-37.950;145.008;2023-04-03T06:51:19;101382.41;;;22.80;40.48
54870;BME280;40756;-37.950;145.008;2023-04-03T06:53:52;101381.29;;;22.86;40.44
54870;BME280;40756;-37.950;145.008;2023-04-03T06:56:22;101375.68;;;22.71;40.73
54870;BME280;40756;-37.950;145.008;2023-04-03T06:58:53;101370.64;;;23.35;40.09
54870;BME280;40756;-37.950;145.008;2023-04-03T07:01:23;101376.54;;;22.87;40.71
54870;BME280;40756;-37.950;145.008;2023-04-03T07:03:54;101372.91;;;23.32;39.95
54870;BME280;40756;-37.950;145.008;2023-04-03T07:06:24;101372.44;;;22.85;39.37
54870;BME280;40756;-37.950;145.008;2023-04-03T07:08:54;101373.04;;;23.38;39.33
54870;BME280;40756;-37.950;145.008;2023-04-03T07:11:25;101372.59;;;22.95;38.93
54870;BME280;40756;-37.950;145.008;2023-04-03T07:13:55;101376.93;;;22.74;38.18
54870;BME280;40756;-37.950;145.008;2023-04-03T07:16:24;101375.46;;;22.37;38.48
54870;BME280;40756;-37.950;145.008;2023-04-03T07:18:53;101376.88;;;22.81;38.00
54870;BME280;40756;-37.950;145.008;2023-04-03T07:21:23;101379.91;;;22.68;37.91
54870;BME280;40756;-37.950;145.008;2023-04-03T07:23:52;101380.39;;;22.78;37.43
54870;BME280;40756;-37.950;145.008;2023-04-03T07:26:22;101379.00;;;23.08;37.80
54870;BME280;40756;-37.950;145.008;2023-04-03T07:28:52;101381.02;;;22.92;38.06
54870;BME280;40756;-37.950;145.008;2023-04-03T07:31:22;101384.26;;;22.52;38.22
54870;BME280;40756;-37.950;145.008;2023-04-03T07:33:51;101382.75;;;23.04;37.56
54870;BME280;40756;-37.950;145.008;2023-04-03T07:36:22;101384.72;;;22.83;37.50
54870;BME280;40756;-37.950;145.008;2023-04-03T07:38:52;101389.47;;;22.84;37.19
54870;BME280;40756;-37.950;145.008;2023-04-03T07:41:21;101390.60;;;22.63;37.62
54870;BME280;40756;-37.950;145.008;2023-04-03T07:43:51;101392.33;;;23.07;37.51
54870;BME280;40756;-37.950;145.008;2023-04-03T07:46:20;101391.80;;;22.84;37.57
54870;BME280;40756;-37.950;145.008;2023-04-03T07:48:50;101393.01;;;23.44;37.01
54870;BME280;40756;-37.950;145.008;2023-04-03T07:51:19;101398.23;;;22.88;37.32
54870;BME280;40756;-37.950;145.008;2023-04-03T07:53:49;101400.99;;;23.03;37.26
54870;BME280;40756;-37.950;145.008;2023-04-03T07:56:18;101402.46;;;22.87;37.54
54870;BME280;40756;-37.950;145.008;2023-04-03T07:58:48;101401.71;;;22.47;37.76
54870;BME280;40756;-37.950;145.008;2023-04-03T08:01:17;101400.96;;;22.29;37.72
54870;BME280;40756;-37.950;145.008;2023-04-03T08:03:47;101401.66;;;22.45;37.67
54870;BME280;40756;-37.950;145.008;2023-04-03T08:06:16;101404.36;;;22.77;37.67
54870;BME280;40756;-37.950;145.008;2023-04-03T08:08:46;101405.30;;;22.30;38.12
54870;BME280;40756;-37.950;145.008;2023-04-03T08:11:15;101407.72;;;22.64;38.24
54870;BME280;40756;-37.950;145.008;2023-04-03T08:13:45;101407.50;;;22.35;38.45
54870;BME280;40756;-37.950;145.008;2023-04-03T08:16:18;101410.67;;;22.25;38.74
54870;BME280;40756;-37.950;145.008;2023-04-03T08:18:48;101414.03;;;22.23;38.56
54870;BME280;40756;-37.950;145.008;2023-04-03T08:21:18;101418.33;;;22.26;38.71
54870;BME280;40756;-37.950;145.008;2023-04-03T08:23:49;101419.30;;;22.07;38.75
54870;BME280;40756;-37.950;145.008;2023-04-03T08:26:20;101421.19;;;22.19;38.60
54870;BME280;40756;-37.950;145.008;2023-04-03T08:28:50;101420.35;;;21.97;38.79
54870;BME280;40756;-37.950;145.008;2023-04-03T08:31:21;101423.66;;;21.64;39.22
54870;BME280;40756;-37.950;145.008;2023-04-03T08:33:50;101428.22;;;21.99;38.72
54870;BME280;40756;-37.950;145.008;2023-04-03T08:36:21;101430.47;;;21.97;39.02
54870;BME280;40756;-37.950;145.008;2023-04-03T08:38:52;101428.87;;;21.89;39.06
54870;BME280;40756;-37.950;145.008;2023-04-03T08:41:29;101432.08;;;21.95;38.96
54870;BME280;40756;-37.950;145.008;2023-04-03T08:44:07;101431.43;;;21.88;39.15
54870;BME280;40756;-37.950;145.008;2023-04-03T08:46:50;101435.77;;;21.76;39.05
54870;BME280;40756;-37.950;145.008;2023-04-03T08:49:28;101434.64;;;21.73;39.33
54870;BME280;40756;-37.950;145.008;2023-04-03T08:52:02;101440.77;;;21.51;39.68
54870;BME280;40756;-37.950;145.008;2023-04-03T08:54:37;101444.63;;;22.02;39.67
54870;BME280;40756;-37.950;145.008;2023-04-03T08:57:12;101444.78;;;21.68;39.84
54870;BME280;40756;-37.950;145.008;2023-04-03T08:59:42;101449.52;;;21.73;39.89
54870;BME280;40756;-37.950;145.008;2023-04-03T09:02:24;101447.66;;;21.27;40.13
54870;BME280;40756;-37.950;145.008;2023-04-03T09:04:55;101448.81;;;21.23;40.15
54870;BME280;40756;-37.950;145.008;2023-04-03T09:07:32;101449.46;;;20.86;40.76
54870;BME280;40756;-37.950;145.008;2023-04-03T09:10:03;101450.81;;;20.96;41.54
54870;BME280;40756;-37.950;145.008;2023-04-03T09:12:37;101456.60;;;21.09;41.22
54870;BME280;40756;-37.950;145.008;2023-04-03T09:15:15;101458.72;;;20.87;41.71
54870;BME280;40756;-37.950;145.008;2023-04-03T09:17:55;101460.48;;;20.57;42.66
54870;BME280;40756;-37.950;145.008;2023-04-03T09:20:33;101461.73;;;20.31;43.58
54870;BME280;40756;-37.950;145.008;2023-04-03T09:23:17;101461.37;;;20.59;43.19
54870;BME280;40756;-37.950;145.008;2023-04-03T09:25:48;101464.11;;;20.62;43.25
54870;BME280;40756;-37.950;145.008;2023-04-03T09:28:19;101466.77;;;20.60;43.41
54870;BME280;40756;-37.950;145.008;2023-04-03T09:30:48;101470.48;;;20.79;43.10
54870;BME280;40756;-37.950;145.008;2023-04-03T09:33:18;101473.42;;;20.85;42.99
54870;BME280;40756;-37.950;145.008;2023-04-03T09:35:51;101477.45;;;20.64;43.44
54870;BME280;40756;-37.950;145.008;2023-04-03T09:38:22;101481.72;;;20.45;43.37
54870;BME280;40756;-37.950;145.008;2023-04-03T09:41:02;101485.97;;;20.74;43.69
54870;BME280;40756;-37.950;145.008;2023-04-03T09:43:34;101490.00;;;20.37;43.86
54870;BME280;40756;-37.950;145.008;2023-04-03T09:46:28;101492.70;;;20.44;43.72
54870;BME280;40756;-37.950;145.008;2023-04-03T09:49:00;101496.93;;;20.22;44.08
54870;BME280;40756;-37.950;145.008;2023-04-03T09:51:31;101499.64;;;20.17;44.23
54870;BME280;40756;-37.950;145.008;2023-04-03T09:54:00;101502.90;;;20.16;44.11
54870;BME280;40756;-37.950;145.008;2023-04-03T09:56:54;101505.94;;;19.80;44.70
54870;BME280;40756;-37.950;145.008;2023-04-03T09:59:25;101507.60;;;19.88;44.59
54870;BME280;40756;-37.950;145.008;2023-04-03T10:02:00;101510.50;;;20.02;44.33
54870;BME280;40756;-37.950;145.008;2023-04-03T10:04:40;101515.08;;;19.92;44.36
54870;BME280;40756;-37.950;145.008;2023-04-03T10:07:42;101517.87;;;20.10;44.21
54870;BME280;40756;-37.950;145.008;2023-04-03T10:10:20;101521.10;;;20.22;43.97
54870;BME280;40756;-37.950;145.008;2023-04-03T10:12:53;101520.64;;;20.12;44.04
54870;BME280;40756;-37.950;145.008;2023-04-03T10:15:42;101524.85;;;20.03;44.22
54870;BME280;40756;-37.950;145.008;2023-04-03T10:18:29;101524.64;;;20.05;44.66
54870;BME280;40756;-37.950;145.008;2023-04-03T10:21:06;101524.03;;;19.70;45.39
54870;BME280;40756;-37.950;145.008;2023-04-03T10:23:44;101528.43;;;19.16;45.84
54870;BME280;40756;-37.950;145.008;2023-04-03T10:26:18;101527.80;;;19.19;46.16
54870;BME280;40756;-37.950;145.008;2023-04-03T10:29:00;101529.96;;;19.27;46.16
54870;BME280;40756;-37.950;145.008;2023-04-03T10:31:36;101532.46;;;19.67;46.10
54870;BME280;40756;-37.950;145.008;2023-04-03T10:34:10;101535.96;;;19.13;46.38
54870;BME280;40756;-37.950;145.008;2023-04-03T10:36:54;101537.03;;;19.16;46.80
54870;BME280;40756;-37.950;145.008;2023-04-03T10:39:32;101540.96;;;19.28;46.70
54870;BME280;40756;-37.950;145.008;2023-04-03T10:42:11;101541.46;;;18.95;46.91
54870;BME280;40756;-37.950;145.008;2023-04-03T10:44:54;101541.66;;;19.01;47.22
54870;BME280;40756;-37.950;145.008;2023-04-03T10:47:32;101542.58;;;18.94;47.39
54870;BME280;40756;-37.950;145.008;2023-04-03T10:50:22;101540.93;;;18.94;47.35
54870;BME280;40756;-37.950;145.008;2023-04-03T10:53:01;101543.27;;;18.61;47.46
54870;BME280;40756;-37.950;145.008;2023-04-03T10:55:37;101546.92;;;18.86;47.40
54870;BME280;40756;-37.950;145.008;2023-04-03T10:58:17;101546.10;;;19.14;47.39
54870;BME280;40756;-37.950;145.008;2023-04-03T11:00:50;101546.68;;;18.93;47.76
54870;BME280;40756;-37.950;145.008;2023-04-03T11:03:30;101551.43;;;18.75;47.68
54870;BME280;40756;-37.950;145.008;2023-04-03T11:06:05;101554.55;;;18.59;48.01
54870;BME280;40756;-37.950;145.008;2023-04-03T11:08:42;101555.53;;;18.84;48.10
54870;BME280;40756;-37.950;145.008;2023-04-03T11:11:17;101560.76;;;18.80;48.21
54870;BME280;40756;-37.950;145.008;2023-04-03T11:13:52;101561.11;;;18.82;48.32
54870;BME280;40756;-37.950;145.008;2023-04-03T11:16:27;101562.51;;;18.81;48.38
54870;BME280;40756;-37.950;145.008;2023-04-03T11:18:59;101565.95;;;18.74;48.55
54870;BME280;40756;-37.950;145.008;2023-04-03T11:21:39;101569.26;;;18.60;48.67
54870;BME280;40756;-37.950;145.008;2023-04-03T11:24:20;101566.80;;;18.55;48.96
54870;BME280;40756;-37.950;145.008;2023-04-03T11:26:52;101568.47;;;18.61;48.89
54870;BME280;40756;-37.950;145.008;2023-04-03T11:29:26;101567.56;;;18.59;48.88
54870;BME280;40756;-37.950;145.008;2023-04-03T11:32:11;101571.23;;;18.82;48.66
54870;BME280;40756;-37.950;145.008;2023-04-03T11:34:47;101570.72;;;18.80;48.68
54870;BME280;40756;-37.950;145.008;2023-04-03T11:37:27;101572.18;;;18.80;48.71
54870;BME280;40756;-37.950;145.008;2023-04-03T11:40:00;101574.09;;;18.60;48.73
54870;BME280;40756;-37.950;145.008;2023-04-03T11:42:36;101575.48;;;18.83;48.65
54870;BME280;40756;-37.950;145.008;2023-04-03T11:45:49;101575.82;;;18.89;48.43
54870;BME280;40756;-37.950;145.008;2023-04-03T11:48:52;101577.09;;;18.64;48.97
54870;BME280;40756;-37.950;145.008;2023-04-03T11:51:41;101577.80;;;18.56;48.99
54870;BME280;40756;-37.950;145.008;2023-04-03T11:56:32;101576.72;;;18.78;49.43
54870;BME280;40756;-37.950;145.008;2023-04-03T11:59:24;101574.89;;;18.41;49.19
54870;BME280;40756;-37.950;145.008;2023-04-03T12:01:55;101575.91;;;18.39;49.27
54870;BME280;40756;-37.950;145.008;2023-04-03T12:04:27;101578.30;;;18.24;49.52
54870;BME280;40756;-37.950;145.008;2023-04-03T12:07:12;101582.82;;;18.14;49.74
54870;BME280;40756;-37.950;145.008;2023-04-03T12:09:58;101584.07;;;18.30;50.11
54870;BME280;40756;-37.950;145.008;2023-04-03T12:12:35;101583.07;;;18.21;50.29
54870;BME280;40756;-37.950;145.008;2023-04-03T12:15:26;101584.91;;;17.91;50.26
54870;BME280;40756;-37.950;145.008;2023-04-03T12:17:56;101581.77;;;18.03;50.76
54870;BME280;40756;-37.950;145.008;2023-04-03T12:21:01;101585.25;;;17.98;51.07
54870;BME280;40756;-37.950;145.008;2023-04-03T12:23:33;101589.55;;;17.73;50.88
54870;BME280;40756;-37.950;145.008;2023-04-03T12:26:20;101588.84;;;17.67;50.89
54870;BME280;40756;-37.950;145.008;2023-04-03T12:28:51;101588.14;;;17.74;51.74
54870;BME280;40756;-37.950;145.008;2023-04-03T12:31:24;101591.87;;;17.72;52.66
54870;BME280;40756;-37.950;145.008;2023-04-03T12:34:24;101590.66;;;18.16;52.18
54870;BME280;40756;-37.950;145.008;2023-04-03T12:37:06;101588.79;;;18.05;52.54
54870;BME280;40756;-37.950;145.008;2023-04-03T12:39:49;101588.44;;;17.98;52.71
54870;BME280;40756;-37.950;145.008;2023-04-03T12:42:34;101588.30;;;17.96;52.64
54870;BME280;40756;-37.950;145.008;2023-04-03T12:45:17;101589.33;;;18.10;52.31
54870;BME280;40756;-37.950;145.008;2023-04-03T12:47:51;101585.70;;;17.99;52.51
54870;BME280;40756;-37.950;145.008;2023-04-03T12:50:25;101587.79;;;17.84;52.36
54870;BME280;40756;-37.950;145.008;2023-04-03T12:53:01;101587.92;;;18.01;51.82